createdAt,value
2019-03-05T00:00:43.027Z,79.19
2019-03-05T00:03:11.618Z,78.86
2019-03-05T00:05:40.210Z,78.88
2019-03-05T00:08:08.838Z,78.44
2019-03-05T00:10:37.434Z,78.42
2019-03-05T00:13:06.030Z,78.45
2019-03-05T00:15:34.739Z,78.50
2019-03-05T00:18:03.338Z,78.10
2019-03-05T00:20:31.859Z,77.73
2019-03-05T00:23:00.454Z,77.83
2019-03-05T00:25:36.865Z,77.69
2019-03-05T00:28:14.339Z,77.32
2019-03-05T00:30:46.147Z,77.24
2019-03-05T00:33:34.378Z,77.25
2019-03-05T00:36:11.952Z,77.35
2019-03-05T00:39:15.073Z,77.25
2019-03-05T00:42:06.343Z,76.76
2019-03-05T00:45:02.058Z,76.94
2019-03-05T00:47:39.372Z,76.74
2019-03-05T00:50:41.065Z,76.61
2019-03-05T00:53:18.207Z,76.81
2019-03-05T00:56:04.976Z,76.52
2019-03-05T00:58:45.437Z,76.63
2019-03-05T01:01:17.023Z,76.47
2019-03-05T01:03:48.711Z,76.61
2019-03-05T01:06:25.151Z,76.71
2019-03-05T01:08:56.154Z,76.48
2019-03-05T01:11:25.232Z,76.58
2019-03-05T01:13:53.857Z,76.64
2019-03-05T01:16:33.342Z,76.55
2019-03-05T01:19:02.137Z,76.27
2019-03-05T01:21:30.743Z,76.44
2019-03-05T01:23:59.366Z,76.35
2019-03-05T01:26:28.299Z,76.35
2019-03-05T01:28:57.005Z,76.30
2019-03-05T01:31:36.310Z,76.34
2019-03-05T01:34:09.422Z,76.07
2019-03-05T01:36:45.645Z,76.06
2019-03-05T01:39:18.479Z,76.20
2019-03-05T01:41:47.075Z,76.21
2019-03-05T01:44:15.736Z,75.92
2019-03-05T01:46:44.299Z,76.12
2019-03-05T01:49:12.888Z,76.10
2019-03-05T01:51:41.484Z,76.08
2019-03-05T01:54:10.111Z,76.15
2019-03-05T01:56:38.804Z,76.27
2019-03-05T01:59:07.403Z,75.93
2019-03-05T02:01:36.000Z,75.93
2019-03-05T02:04:04.890Z,76.20
2019-03-05T02:06:33.508Z,75.92
2019-03-05T02:09:02.096Z,76.17
2019-03-05T02:11:30.867Z,76.44
2019-03-05T02:13:59.490Z,76.77
2019-03-05T02:16:28.111Z,76.58
2019-03-05T02:19:16.399Z,76.95
2019-03-05T02:21:44.919Z,76.97
2019-03-05T02:24:42.014Z,77.02
2019-03-05T02:27:18.661Z,76.85
2019-03-05T02:29:52.752Z,76.51
2019-03-05T02:32:30.800Z,76.54
2019-03-05T02:35:02.361Z,76.77
2019-03-05T02:37:45.497Z,76.78
2019-03-05T02:40:25.989Z,78.18
2019-03-05T02:42:57.493Z,79.72
2019-03-05T02:45:31.915Z,81.26
2019-03-05T02:48:11.982Z,83.25
2019-03-05T02:51:05.577Z,83.48
2019-03-05T02:53:45.454Z,84.14
2019-03-05T02:56:20.022Z,84.88
2019-03-05T02:58:47.346Z,85.34
2019-03-05T03:01:20.836Z,85.59
2019-03-05T03:03:51.071Z,86.04
2019-03-05T03:06:21.390Z,86.45
2019-03-05T03:08:51.554Z,86.55
2019-03-05T03:11:20.143Z,86.98
2019-03-05T03:13:48.884Z,88.26
2019-03-05T03:16:17.473Z,88.62
2019-03-05T03:18:46.126Z,88.80
2019-03-05T03:21:14.726Z,88.98
2019-03-05T03:23:43.371Z,88.86
2019-03-05T03:26:11.935Z,89.20
2019-03-05T03:28:40.527Z,89.01
2019-03-05T03:31:09.042Z,88.60
2019-03-05T03:33:37.570Z,88.64
2019-03-05T03:36:06.161Z,88.40
2019-03-05T03:38:34.778Z,88.25
2019-03-05T03:41:03.502Z,88.32
2019-03-05T03:43:32.086Z,87.80
2019-03-05T03:46:00.675Z,87.35
2019-03-05T03:48:29.273Z,87.13
2019-03-05T03:50:57.800Z,86.78
2019-03-05T03:53:26.604Z,86.58
2019-03-05T03:55:55.204Z,86.55
2019-03-05T03:58:23.897Z,86.49
2019-03-05T04:00:52.595Z,86.10
2019-03-05T04:03:21.379Z,86.23
2019-03-05T04:05:49.986Z,85.88
2019-03-05T04:08:18.769Z,85.81
2019-03-05T04:10:47.367Z,85.25
2019-03-05T04:13:16.055Z,85.39
2019-03-05T04:15:44.653Z,85.36
2019-03-05T04:18:13.196Z,85.03
2019-03-05T04:20:43.460Z,85.33
2019-03-05T04:23:12.058Z,85.00
2019-03-05T04:25:40.646Z,84.50
2019-03-05T04:28:09.244Z,84.33
2019-03-05T04:30:37.832Z,84.58
2019-03-05T04:33:06.453Z,84.28
2019-03-05T04:35:35.091Z,84.07
2019-03-05T04:38:03.794Z,83.90
2019-03-05T04:40:32.495Z,83.88
2019-03-05T04:43:01.081Z,83.58
2019-03-05T04:45:42.560Z,83.30
2019-03-05T04:48:11.222Z,83.49
2019-03-05T04:50:50.580Z,83.56
2019-03-05T04:53:19.342Z,83.62
2019-03-05T04:55:48.046Z,83.82
2019-03-05T04:58:16.573Z,83.87
2019-03-05T05:00:45.165Z,83.65
2019-03-05T05:03:13.753Z,83.66
2019-03-05T05:05:42.347Z,83.16
2019-03-05T05:08:10.870Z,83.14
2019-03-05T05:10:39.463Z,82.91
2019-03-05T05:13:08.096Z,82.83
2019-03-05T05:15:36.693Z,82.70
2019-03-05T05:18:05.402Z,82.63
2019-03-05T05:20:34.018Z,82.03
2019-03-05T05:23:02.599Z,81.96
2019-03-05T05:25:31.185Z,81.92
2019-03-05T05:27:59.641Z,81.96
2019-03-05T05:30:34.976Z,81.51
2019-03-05T05:33:03.901Z,81.34
2019-03-05T05:35:32.591Z,80.95
2019-03-05T05:38:01.176Z,81.00
2019-03-05T05:40:44.206Z,80.70
2019-03-05T05:43:18.246Z,80.84
2019-03-05T05:45:48.547Z,80.99
2019-03-05T05:48:17.469Z,80.74
2019-03-05T05:50:46.057Z,80.60
2019-03-05T05:53:14.688Z,80.63
2019-03-05T05:55:43.281Z,80.60
2019-03-05T05:58:11.980Z,80.71
2019-03-05T06:00:42.213Z,80.63
2019-03-05T06:03:10.777Z,80.45
2019-03-05T06:05:39.453Z,80.48
2019-03-05T06:08:08.043Z,80.27
2019-03-05T06:10:36.694Z,80.51
2019-03-05T06:13:05.413Z,80.70
2019-03-05T06:15:34.056Z,80.59
2019-03-05T06:18:02.640Z,80.40
2019-03-05T06:20:31.263Z,80.17
2019-03-05T06:23:00.155Z,80.32
2019-03-05T06:25:28.949Z,80.22
2019-03-05T06:27:57.578Z,79.95
2019-03-05T06:30:28.470Z,79.80
2019-03-05T06:32:57.017Z,79.59
2019-03-05T06:35:25.606Z,79.76
2019-03-05T06:37:54.162Z,79.55
2019-03-05T06:40:30.506Z,79.52
2019-03-05T06:42:59.158Z,78.96
2019-03-05T06:45:27.907Z,78.72
2019-03-05T06:47:56.684Z,78.95
2019-03-05T06:50:27.214Z,78.78
2019-03-05T06:52:56.119Z,78.75
2019-03-05T06:55:24.904Z,78.93
2019-03-05T06:57:53.560Z,78.48
2019-03-05T07:00:25.758Z,78.76
2019-03-05T07:02:54.633Z,79.07
2019-03-05T07:05:59.737Z,79.10
2019-03-05T07:08:28.754Z,79.21
2019-03-05T07:11:06.266Z,79.61
2019-03-05T07:13:35.078Z,80.03
2019-03-05T07:16:06.613Z,80.27
2019-03-05T07:18:38.466Z,80.11
2019-03-05T07:21:32.571Z,80.26
2019-03-05T07:24:16.364Z,80.43
2019-03-05T07:26:45.065Z,80.71
2019-03-05T07:29:13.683Z,80.27
2019-03-05T07:31:42.230Z,80.54
2019-03-05T07:34:12.505Z,81.17
2019-03-05T07:36:41.023Z,81.17
2019-03-05T07:39:12.581Z,82.19
2019-03-05T07:41:41.100Z,82.60
2019-03-05T07:44:09.642Z,83.22
2019-03-05T07:46:38.162Z,83.40
2019-03-05T07:49:06.702Z,83.13
2019-03-05T07:51:35.290Z,83.37
2019-03-05T07:54:03.902Z,83.57
2019-03-05T07:56:32.493Z,83.39
2019-03-05T07:59:01.122Z,83.13
2019-03-05T08:01:29.782Z,83.22
2019-03-05T08:03:58.379Z,82.79
2019-03-05T08:06:26.840Z,82.90
2019-03-05T08:09:29.636Z,82.46
2019-03-05T08:12:10.205Z,82.30
2019-03-05T08:14:41.737Z,81.94
2019-03-05T08:17:10.253Z,82.43
2019-03-05T08:19:38.874Z,82.29
2019-03-05T08:22:08.943Z,82.44
2019-03-05T08:24:37.444Z,82.34
2019-03-05T08:27:06.065Z,82.12
2019-03-05T08:29:34.713Z,82.28
2019-03-05T08:32:03.401Z,82.16
2019-03-05T08:34:31.930Z,82.32
2019-03-05T08:37:00.493Z,82.22
2019-03-05T08:39:29.115Z,82.37
2019-03-05T08:41:57.735Z,82.55
2019-03-05T08:44:26.356Z,82.67
2019-03-05T08:46:54.999Z,82.93
2019-03-05T08:49:23.598Z,83.54
2019-03-05T08:51:52.119Z,83.32
2019-03-05T08:54:20.634Z,83.62
2019-03-05T08:56:49.263Z,83.88
2019-03-05T08:59:17.908Z,84.04
2019-03-05T09:01:46.432Z,84.27
2019-03-05T09:04:16.877Z,84.56
2019-03-05T09:06:45.496Z,84.79
2019-03-05T09:09:16.694Z,84.43
2019-03-05T09:11:45.290Z,84.59
2019-03-05T09:14:13.939Z,84.53
2019-03-05T09:16:42.537Z,84.52
2019-03-05T09:19:11.268Z,84.93
2019-03-05T09:21:40.063Z,84.85
2019-03-05T09:24:08.696Z,85.00
2019-03-05T09:26:37.289Z,84.80
2019-03-05T09:29:05.911Z,84.80
2019-03-05T09:31:34.550Z,85.17
2019-03-05T09:34:03.192Z,85.12
2019-03-05T09:36:31.796Z,84.94
2019-03-05T09:39:00.347Z,84.30
2019-03-05T09:41:28.942Z,84.27
2019-03-05T09:43:57.467Z,84.09
2019-03-05T09:46:26.119Z,83.54
2019-03-05T09:48:54.642Z,82.03
2019-03-05T09:51:23.165Z,81.46
2019-03-05T09:53:51.799Z,81.67
2019-03-05T09:56:20.318Z,81.86
2019-03-05T09:58:48.906Z,82.30
2019-03-05T10:01:17.508Z,82.68
2019-03-05T10:03:46.101Z,82.57
2019-03-05T10:06:14.742Z,82.49
2019-03-05T10:08:43.406Z,82.00
2019-03-05T10:11:12.433Z,81.73
2019-03-05T10:13:41.051Z,80.31
2019-03-05T10:16:09.758Z,79.47
2019-03-05T10:18:39.338Z,78.56
2019-03-05T10:21:08.095Z,79.00
2019-03-05T10:23:36.726Z,79.23
2019-03-05T10:26:05.423Z,78.26
2019-03-05T10:28:35.014Z,77.38
2019-03-05T10:31:03.993Z,75.62
2019-03-05T10:33:32.597Z,74.33
2019-03-05T10:36:01.125Z,72.97
2019-03-05T10:38:29.811Z,72.14
2019-03-05T10:41:00.903Z,72.35
2019-03-05T10:43:29.491Z,72.04
2019-03-05T10:45:58.252Z,72.17
2019-03-05T10:48:26.904Z,72.56
2019-03-05T10:50:55.712Z,73.08
2019-03-05T10:53:24.464Z,73.27
2019-03-05T10:55:53.354Z,73.79
2019-03-05T10:58:32.825Z,73.47
2019-03-05T11:00:54.186Z,72.91
2019-03-05T11:03:25.279Z,72.72
2019-03-05T11:05:54.180Z,72.07
2019-03-05T11:08:24.649Z,72.36
2019-03-05T11:10:54.172Z,72.49
2019-03-05T11:13:22.795Z,72.56
2019-03-05T11:15:56.742Z,73.00
2019-03-05T11:18:29.312Z,72.90
2019-03-05T11:20:55.668Z,72.95
2019-03-05T11:23:24.331Z,72.70
2019-03-05T11:25:52.850Z,72.65
2019-03-05T11:28:21.472Z,72.04
2019-03-05T11:30:50.266Z,71.51
2019-03-05T11:33:18.952Z,71.96
2019-03-05T11:35:47.543Z,71.87
2019-03-05T11:38:16.172Z,71.71
2019-03-05T11:40:44.933Z,72.21
2019-03-05T11:43:15.866Z,71.14
2019-03-05T11:45:44.926Z,71.08
2019-03-05T11:48:14.513Z,69.13
2019-03-05T11:50:43.320Z,68.57
2019-03-05T11:53:11.934Z,68.53
2019-03-05T11:55:40.523Z,68.28
2019-03-05T11:58:09.117Z,67.75
2019-03-05T12:00:39.483Z,67.79
2019-03-05T12:03:08.076Z,67.81
2019-03-05T12:05:36.722Z,67.74
2019-03-05T12:08:05.307Z,68.00
2019-03-05T12:10:33.934Z,68.25
2019-03-05T12:13:02.600Z,67.48
2019-03-05T12:15:33.594Z,67.86
2019-03-05T12:18:02.182Z,67.51
2019-03-05T12:20:30.781Z,67.59
2019-03-05T12:22:59.408Z,67.75
2019-03-05T12:25:27.998Z,67.57
2019-03-05T12:27:56.609Z,67.53
2019-03-05T12:30:27.132Z,67.50
2019-03-05T12:32:55.769Z,67.71
2019-03-05T12:35:24.367Z,68.00
2019-03-05T12:37:52.991Z,67.56
2019-03-05T12:40:22.979Z,67.53
2019-03-05T12:42:51.816Z,67.60
2019-03-05T12:45:21.811Z,66.29
2019-03-05T12:47:50.400Z,64.62
2019-03-05T12:50:30.733Z,63.53
2019-03-05T12:52:59.325Z,63.93
2019-03-05T12:55:28.128Z,62.05
2019-03-05T12:57:56.832Z,61.45
2019-03-05T13:00:28.210Z,61.12
2019-03-05T13:02:57.323Z,60.55
2019-03-05T13:05:26.019Z,61.16
2019-03-05T13:07:56.436Z,61.63
2019-03-05T13:10:37.322Z,61.53
2019-03-05T13:13:05.438Z,61.83
2019-03-05T13:15:36.366Z,62.04
2019-03-05T13:18:05.252Z,62.74
2019-03-05T13:20:33.870Z,63.18
2019-03-05T13:23:08.884Z,62.65
2019-03-05T13:25:33.132Z,62.04
2019-03-05T13:28:03.766Z,61.24
2019-03-05T13:30:34.951Z,61.30
2019-03-05T13:33:03.586Z,61.15
2019-03-05T13:35:32.421Z,60.71
2019-03-05T13:38:09.374Z,60.50
2019-03-05T13:40:38.557Z,60.35
2019-03-05T13:43:07.654Z,61.15
2019-03-05T13:45:36.286Z,60.55
2019-03-05T13:48:14.747Z,59.85
2019-03-05T13:50:58.321Z,60.22
2019-03-05T13:53:35.666Z,59.85
2019-03-05T13:56:13.305Z,60.03
2019-03-05T13:59:07.610Z,60.21
2019-03-05T14:01:36.352Z,59.61
2019-03-05T14:04:07.856Z,58.46
2019-03-05T14:06:56.065Z,58.48
2019-03-05T14:09:23.402Z,59.47
2019-03-05T14:11:52.229Z,59.26
2019-03-05T14:14:27.516Z,58.30
2019-03-05T14:17:00.888Z,58.24
2019-03-05T14:19:29.498Z,58.74
2019-03-05T14:21:58.087Z,58.67
2019-03-05T14:24:26.674Z,58.95
2019-03-05T14:26:55.255Z,58.97
2019-03-05T14:29:23.813Z,59.51
2019-03-05T14:31:52.411Z,59.34
2019-03-05T14:34:21.035Z,59.78
2019-03-05T14:36:49.613Z,59.99
2019-03-05T14:39:25.821Z,59.74
2019-03-05T14:41:55.070Z,59.80
2019-03-05T14:44:23.855Z,59.21
2019-03-05T14:47:00.953Z,58.63
2019-03-05T14:49:29.565Z,58.42
2019-03-05T14:51:58.175Z,58.60
2019-03-05T14:54:26.748Z,59.25
2019-03-05T14:56:55.363Z,59.46
2019-03-05T14:59:24.111Z,59.43
2019-03-05T15:01:53.169Z,59.67
2019-03-05T15:04:21.824Z,59.80
2019-03-05T15:06:51.164Z,59.97
2019-03-05T15:09:20.165Z,60.37
2019-03-05T15:11:48.804Z,60.16
2019-03-05T15:14:17.388Z,60.68
2019-03-05T15:16:46.083Z,60.85
2019-03-05T15:19:21.490Z,61.02
2019-03-05T15:21:45.316Z,61.28
2019-03-05T15:24:13.898Z,61.48
2019-03-05T15:26:42.541Z,61.77
2019-03-05T15:29:11.150Z,61.77
2019-03-05T15:31:39.783Z,61.72
2019-03-05T15:34:08.347Z,61.71
2019-03-05T15:36:36.994Z,61.47
2019-03-05T15:39:06.535Z,61.26
2019-03-05T15:41:35.249Z,61.25
2019-03-05T15:44:03.920Z,61.08
2019-03-05T15:46:32.643Z,60.95
2019-03-05T15:49:01.283Z,60.54
2019-03-05T15:51:29.908Z,59.98
2019-03-05T15:53:58.651Z,59.64
2019-03-05T15:56:27.378Z,59.57
2019-03-05T15:58:56.019Z,59.49
2019-03-05T16:01:24.675Z,59.51
2019-03-05T16:03:53.368Z,59.79
2019-03-05T16:06:21.959Z,59.85
2019-03-05T16:08:50.868Z,60.28
2019-03-05T16:11:19.457Z,60.32
2019-03-05T16:13:48.273Z,60.69
2019-03-05T16:16:18.408Z,60.15
2019-03-05T16:18:47.456Z,59.92
2019-03-05T16:21:16.072Z,59.62
2019-03-05T16:23:44.809Z,59.99
2019-03-05T16:26:15.476Z,60.20
2019-03-05T16:28:45.103Z,60.24
2019-03-05T16:31:15.472Z,60.70
2019-03-05T16:33:49.376Z,60.86
2019-03-05T16:36:31.787Z,61.15
2019-03-05T16:39:14.505Z,61.36
2019-03-05T16:41:44.819Z,61.86
2019-03-05T16:44:21.509Z,61.86
2019-03-05T16:46:51.904Z,62.00
2019-03-05T16:49:38.692Z,62.37
2019-03-05T16:52:09.031Z,62.49
2019-03-05T16:54:39.439Z,62.89
2019-03-05T16:57:09.940Z,62.96
2019-03-05T16:59:58.985Z,63.13
2019-03-05T17:02:32.055Z,63.20
2019-03-05T17:05:18.474Z,63.38
2019-03-05T17:07:48.899Z,63.55
2019-03-05T17:10:22.276Z,63.59
2019-03-05T17:12:51.183Z,63.78
2019-03-05T17:15:19.973Z,64.09
2019-03-05T17:17:49.164Z,64.35
2019-03-05T17:20:17.905Z,64.35
2019-03-05T17:22:46.744Z,64.61
2019-03-05T17:25:18.296Z,64.59
2019-03-05T17:27:47.091Z,64.63
2019-03-05T17:30:17.361Z,65.08
2019-03-05T17:32:46.812Z,65.08
2019-03-05T17:35:16.627Z,64.80
2019-03-05T17:37:45.670Z,64.86
2019-03-05T17:40:15.456Z,65.00
2019-03-05T17:42:44.403Z,65.13
2019-03-05T17:45:27.032Z,65.13
2019-03-05T17:47:56.126Z,65.26
2019-03-05T17:50:24.864Z,65.25
2019-03-05T17:52:53.700Z,65.23
2019-03-05T17:55:27.446Z,65.24
2019-03-05T17:57:56.622Z,65.18
2019-03-05T18:00:26.943Z,65.30
2019-03-05T18:02:55.913Z,65.34
2019-03-05T18:05:24.699Z,65.44
2019-03-05T18:07:53.489Z,65.62
2019-03-05T18:10:22.484Z,65.76
2019-03-05T18:12:51.273Z,65.88
2019-03-05T18:15:20.159Z,66.07
2019-03-05T18:17:50.869Z,66.30
2019-03-05T18:20:22.140Z,66.50
2019-03-05T18:22:51.255Z,66.87
2019-03-05T18:25:22.154Z,67.12
2019-03-05T18:27:51.064Z,67.36
2019-03-05T18:30:24.967Z,67.55
2019-03-05T18:32:54.605Z,67.68
2019-03-05T18:35:23.359Z,68.62
2019-03-05T18:37:52.150Z,67.89
2019-03-05T18:40:24.755Z,68.06
2019-03-05T18:42:56.127Z,68.25
2019-03-05T18:45:29.954Z,68.52
2019-03-05T18:48:00.920Z,68.53
2019-03-05T18:50:31.159Z,68.62
2019-03-05T18:53:05.585Z,68.66
2019-03-05T18:55:36.987Z,68.74
2019-03-05T18:58:08.561Z,68.89
2019-03-05T19:00:43.832Z,68.84
2019-03-05T19:03:16.875Z,68.84
2019-03-05T19:05:45.678Z,68.84
2019-03-05T19:08:17.636Z,68.74
2019-03-05T19:10:47.035Z,68.77
2019-03-05T19:13:17.415Z,68.86
2019-03-05T19:15:48.303Z,69.01
2019-03-05T19:18:25.517Z,69.09
2019-03-05T19:20:54.683Z,69.11
2019-03-05T19:23:23.568Z,69.22
2019-03-05T19:25:54.252Z,69.39
2019-03-05T19:28:23.090Z,69.60
2019-03-05T19:30:56.149Z,69.65
2019-03-05T19:33:26.498Z,69.85
2019-03-05T19:35:56.851Z,69.93
2019-03-05T19:38:27.455Z,70.18
2019-03-05T19:40:58.568Z,70.24
2019-03-05T19:43:29.738Z,70.22
2019-03-05T19:46:00.062Z,70.18
2019-03-05T19:48:28.993Z,70.42
2019-03-05T19:50:59.190Z,70.50
2019-03-05T19:53:28.215Z,70.62
2019-03-05T19:55:57.138Z,70.79
2019-03-05T19:58:27.626Z,70.92
2019-03-05T20:00:58.002Z,71.10
2019-03-05T20:03:26.808Z,71.31
2019-03-05T20:05:55.578Z,71.45
2019-03-05T20:08:24.471Z,71.53
2019-03-05T20:10:53.260Z,71.67
2019-03-05T20:13:23.234Z,71.84
2019-03-05T20:15:52.060Z,72.00
2019-03-05T20:18:20.853Z,72.13
2019-03-05T20:20:49.637Z,72.28
2019-03-05T20:23:18.525Z,72.42
2019-03-05T20:25:47.518Z,72.53
2019-03-05T20:28:17.328Z,72.73
2019-03-05T20:30:46.634Z,72.89
2019-03-05T20:33:15.414Z,73.28
2019-03-05T20:35:44.616Z,73.50
2019-03-05T20:38:13.403Z,73.73
2019-03-05T20:40:42.190Z,73.72
2019-03-05T20:43:10.966Z,73.97
2019-03-05T20:45:45.501Z,74.08
2019-03-05T20:48:17.900Z,74.15
2019-03-05T20:50:49.124Z,74.24
2019-03-05T20:53:17.901Z,74.30
2019-03-05T20:55:46.689Z,74.37
2019-03-05T20:58:15.576Z,74.43
2019-03-05T21:00:44.894Z,74.46
2019-03-05T21:03:14.680Z,74.67
2019-03-05T21:05:45.962Z,74.77
2019-03-05T21:08:14.824Z,74.76
2019-03-05T21:10:43.700Z,74.81
2019-03-05T21:13:12.616Z,74.74
2019-03-05T21:15:41.500Z,74.93
2019-03-05T21:18:15.141Z,75.16
2019-03-05T21:20:43.985Z,75.43
2019-03-05T21:23:14.845Z,75.49
2019-03-05T21:25:43.607Z,75.37
2019-03-05T21:28:12.495Z,75.70
2019-03-05T21:30:41.489Z,75.59
2019-03-05T21:33:10.386Z,75.63
2019-03-05T21:35:39.578Z,75.60
2019-03-05T21:38:08.470Z,75.78
2019-03-05T21:40:39.473Z,75.80
2019-03-05T21:43:08.101Z,75.81
2019-03-05T21:45:39.788Z,75.71
2019-03-05T21:48:08.938Z,75.66
2019-03-05T21:50:37.715Z,75.60
2019-03-05T21:53:07.222Z,75.69
2019-03-05T21:55:36.324Z,75.85
2019-03-05T21:58:05.425Z,76.20
2019-03-05T22:00:36.297Z,76.31
2019-03-05T22:03:06.788Z,76.55
2019-03-05T22:05:35.390Z,76.87
2019-03-05T22:08:04.356Z,77.12
2019-03-05T22:10:33.316Z,77.01
2019-03-05T22:13:02.582Z,77.34
2019-03-05T22:15:32.908Z,77.55
2019-03-05T22:18:01.722Z,77.50
2019-03-05T22:20:30.521Z,77.70
2019-03-05T22:22:59.387Z,77.93
2019-03-05T22:25:29.081Z,78.04
2019-03-05T22:27:58.095Z,78.01
2019-03-05T22:30:34.902Z,78.05
2019-03-05T22:33:03.687Z,78.19
2019-03-05T22:35:32.295Z,78.16
2019-03-05T22:38:00.899Z,78.35
2019-03-05T22:40:30.054Z,78.63
2019-03-05T22:42:58.868Z,78.49
2019-03-05T22:45:32.117Z,78.63
2019-03-05T22:48:00.742Z,78.75
2019-03-05T22:50:29.337Z,78.82
2019-03-05T22:52:57.956Z,78.81
2019-03-05T22:55:26.699Z,78.80
2019-03-05T22:57:55.703Z,78.86
2019-03-05T23:00:37.868Z,78.93
2019-03-05T23:03:18.434Z,78.86
2019-03-05T23:05:47.126Z,78.85
2019-03-05T23:08:15.717Z,78.84
2019-03-05T23:10:44.313Z,78.75
2019-03-05T23:13:13.517Z,78.69
2019-03-05T23:15:42.082Z,78.85
2019-03-05T23:18:10.673Z,78.77
2019-03-05T23:20:39.575Z,78.71
2019-03-05T23:23:08.291Z,78.97
2019-03-05T23:25:36.964Z,78.90
2019-03-05T23:28:06.694Z,78.99
2019-03-05T23:30:35.594Z,79.11
2019-03-05T23:33:04.364Z,79.14
2019-03-05T23:35:33.078Z,79.26
2019-03-05T23:38:01.782Z,79.42
2019-03-05T23:40:30.593Z,79.53
2019-03-05T23:42:59.265Z,79.63
2019-03-05T23:45:27.938Z,79.59
2019-03-05T23:47:56.715Z,79.69
2019-03-05T23:50:25.329Z,79.69
2019-03-05T23:52:53.932Z,79.71
2019-03-05T23:55:22.541Z,79.68
2019-03-05T23:57:51.301Z,79.83
